createdAt,value
2017-05-08T00:01:48.772Z,8.10
2017-05-08T00:04:16.329Z,8.10
2017-05-08T00:06:43.820Z,8.00
2017-05-08T00:09:12.123Z,7.90
2017-05-08T00:11:40.766Z,7.80
2017-05-08T00:14:08.292Z,7.90
2017-05-08T00:16:36.862Z,7.70
2017-05-08T00:19:05.381Z,7.80
2017-05-08T00:21:32.883Z,7.80
2017-05-08T00:24:01.440Z,7.70
2017-05-08T00:26:30.819Z,7.50
2017-05-08T00:28:59.336Z,7.50
2017-05-08T00:31:27.628Z,7.40
2017-05-08T00:33:55.907Z,7.40
2017-05-08T00:36:24.526Z,7.30
2017-05-08T00:38:52.847Z,7.20
2017-05-08T00:41:21.485Z,7.10
2017-05-08T00:43:49.758Z,7.10
2017-05-08T00:46:18.048Z,7.00
2017-05-08T00:48:46.338Z,7.00
2017-05-08T00:51:14.677Z,7.00
2017-05-08T00:53:42.993Z,7.10
2017-05-08T00:56:10.823Z,7.10
2017-05-08T00:58:38.320Z,7.20
2017-05-08T01:01:06.603Z,7.20
2017-05-08T01:03:34.920Z,7.10
2017-05-08T01:06:03.243Z,7.00
2017-05-08T01:08:30.743Z,7.00
2017-05-08T01:10:58.293Z,6.90
2017-05-08T01:13:26.080Z,6.90
2017-05-08T01:15:54.364Z,6.80
2017-05-08T01:18:21.883Z,6.80
2017-05-08T01:20:49.682Z,6.80
2017-05-08T01:23:17.984Z,6.70
2017-05-08T01:25:46.984Z,6.90
2017-05-08T01:28:15.353Z,7.10
2017-05-08T01:30:42.894Z,7.10
2017-05-08T01:33:10.491Z,7.20
2017-05-08T01:35:38.774Z,7.10
2017-05-08T01:38:07.071Z,7.10
2017-05-08T01:40:35.332Z,7.20
2017-05-08T01:43:02.905Z,7.20
2017-05-08T01:45:31.188Z,7.30
2017-05-08T01:47:58.779Z,7.30
2017-05-08T01:50:27.785Z,7.20
2017-05-08T01:52:56.153Z,7.20
2017-05-08T01:55:25.516Z,7.20
2017-05-08T01:57:54.051Z,7.20
2017-05-08T02:00:21.572Z,7.20
2017-05-08T02:02:49.115Z,7.30
2017-05-08T02:05:17.375Z,7.40
2017-05-08T02:07:44.899Z,7.40
2017-05-08T02:10:13.183Z,7.70
2017-05-08T02:12:41.464Z,7.70
2017-05-08T02:15:09.028Z,7.70
2017-05-08T02:17:36.813Z,7.80
2017-05-08T02:20:04.579Z,8.00
2017-05-08T02:22:32.072Z,8.00
2017-05-08T02:25:01.124Z,8.20
2017-05-08T02:27:28.620Z,8.20
2017-05-08T02:29:56.208Z,8.20
2017-05-08T02:32:24.523Z,8.40
2017-05-08T02:34:52.124Z,8.40
2017-05-08T02:37:20.393Z,8.50
2017-05-08T02:39:48.801Z,8.50
2017-05-08T02:42:17.091Z,8.50
2017-05-08T02:44:45.680Z,8.50
2017-05-08T02:47:13.444Z,8.40
2017-05-08T02:49:40.956Z,8.50
2017-05-08T02:52:09.299Z,8.40
2017-05-08T02:54:36.846Z,8.40
2017-05-08T02:57:04.353Z,8.50
2017-05-08T02:59:32.635Z,8.50
2017-05-08T03:02:00.427Z,8.50
2017-05-08T03:04:27.925Z,8.50
2017-05-08T03:06:55.497Z,8.50
2017-05-08T03:09:23.824Z,8.50
2017-05-08T03:11:51.399Z,8.50
2017-05-08T03:14:20.395Z,8.30
2017-05-08T03:16:49.476Z,8.30
2017-05-08T03:19:17.987Z,8.30
2017-05-08T03:21:46.308Z,8.40
2017-05-08T03:24:13.809Z,8.30
2017-05-08T03:26:41.369Z,8.30
2017-05-08T03:29:09.704Z,8.20
2017-05-08T03:31:37.369Z,8.10
2017-05-08T03:34:04.865Z,8.10
2017-05-08T03:36:32.715Z,8.10
2017-05-08T03:39:00.258Z,8.00
2017-05-08T03:41:28.031Z,8.00
2017-05-08T03:43:57.039Z,8.00
2017-05-08T03:46:25.417Z,7.90
2017-05-08T03:48:53.958Z,8.00
2017-05-08T03:51:21.475Z,7.90
2017-05-08T03:53:48.986Z,8.00
2017-05-08T03:56:16.576Z,8.10
2017-05-08T03:58:44.830Z,8.20
2017-05-08T04:01:14.118Z,8.30
2017-05-08T04:03:41.741Z,8.30
2017-05-08T04:06:10.115Z,8.30
2017-05-08T04:08:38.379Z,8.40
2017-05-08T04:11:05.927Z,8.40
2017-05-08T04:13:34.200Z,8.70
2017-05-08T04:16:02.460Z,8.80
2017-05-08T04:18:30.842Z,8.70
2017-05-08T04:20:59.107Z,8.70
2017-05-08T04:23:27.391Z,8.70
2017-05-08T04:25:55.923Z,8.70
2017-05-08T04:28:24.237Z,8.70
2017-05-08T04:30:52.628Z,8.80
2017-05-08T04:33:20.919Z,8.70
2017-05-08T04:35:49.183Z,8.80
2017-05-08T04:38:17.810Z,8.80
2017-05-08T04:40:46.103Z,8.80
2017-05-08T04:43:13.660Z,8.80
2017-05-08T04:45:41.163Z,8.90
2017-05-08T04:48:09.452Z,9.30
2017-05-08T04:50:37.799Z,9.30
2017-05-08T04:53:06.124Z,9.20
2017-05-08T04:55:33.632Z,9.20
2017-05-08T04:58:01.958Z,9.30
2017-05-08T05:00:29.518Z,9.20
2017-05-08T05:02:57.284Z,9.40
2017-05-08T05:05:25.543Z,9.70
2017-05-08T05:07:53.075Z,9.70
2017-05-08T05:10:20.570Z,9.80
2017-05-08T05:12:49.139Z,10.30
2017-05-08T05:15:17.440Z,10.50
2017-05-08T05:17:46.495Z,10.70
2017-05-08T05:20:13.997Z,10.70
2017-05-08T05:22:41.548Z,10.80
2017-05-08T05:25:09.085Z,10.80
2017-05-08T05:27:36.948Z,10.90
2017-05-08T05:30:08.219Z,11.00
2017-05-08T05:32:37.252Z,11.10
2017-05-08T05:35:05.953Z,11.10
2017-05-08T05:37:33.476Z,11.20
2017-05-08T05:40:01.809Z,11.30
2017-05-08T05:42:29.564Z,11.30
2017-05-08T05:44:57.833Z,11.40
2017-05-08T05:47:25.700Z,11.40
2017-05-08T05:49:53.205Z,11.30
2017-05-08T05:52:21.544Z,11.40
2017-05-08T05:54:49.863Z,11.30
2017-05-08T05:57:18.271Z,11.00
2017-05-08T05:59:46.054Z,11.00
2017-05-08T06:02:13.557Z,10.90
2017-05-08T06:04:41.848Z,10.90
2017-05-08T06:07:09.415Z,10.90
2017-05-08T06:09:37.035Z,10.80
2017-05-08T06:12:05.343Z,10.70
2017-05-08T06:14:33.156Z,10.70
2017-05-08T06:17:00.812Z,10.70
2017-05-08T06:19:28.359Z,10.70
2017-05-08T06:21:55.907Z,10.80
2017-05-08T06:24:23.484Z,10.70
2017-05-08T06:26:51.025Z,10.70
2017-05-08T06:29:18.553Z,10.60
2017-05-08T06:31:46.060Z,10.60
2017-05-08T06:34:13.580Z,10.60
2017-05-08T06:36:41.850Z,10.30
2017-05-08T06:39:09.436Z,10.30
2017-05-08T06:41:37.187Z,10.30
2017-05-08T06:44:04.750Z,10.20
2017-05-08T06:46:33.010Z,10.10
2017-05-08T06:49:00.787Z,10.00
2017-05-08T06:51:28.347Z,10.10
2017-05-08T06:53:56.608Z,9.90
2017-05-08T06:56:24.196Z,9.90
2017-05-08T06:58:51.927Z,9.80
2017-05-08T07:01:20.235Z,9.80
2017-05-08T07:03:47.730Z,9.80
2017-05-08T07:06:16.052Z,9.70
2017-05-08T07:08:43.808Z,9.70
2017-05-08T07:11:12.388Z,9.50
2017-05-08T07:13:40.733Z,9.40
2017-05-08T07:16:09.011Z,9.40
2017-05-08T07:18:37.303Z,9.40
2017-05-08T07:21:04.867Z,9.40
2017-05-08T07:23:33.484Z,9.50
2017-05-08T07:26:01.809Z,9.40
2017-05-08T07:28:29.576Z,9.40
2017-05-08T07:30:58.199Z,9.40
2017-05-08T07:33:25.760Z,9.40
2017-05-08T07:35:53.284Z,9.30
2017-05-08T07:38:20.996Z,9.40
2017-05-08T07:40:49.344Z,9.40
2017-05-08T07:43:16.945Z,9.40
2017-05-08T07:45:44.541Z,9.40
2017-05-08T07:48:12.802Z,9.30
2017-05-08T07:50:40.342Z,9.30
2017-05-08T07:53:07.904Z,9.40
2017-05-08T07:55:35.454Z,9.30
2017-05-08T07:58:02.968Z,9.30
2017-05-08T08:00:31.969Z,9.30
2017-05-08T08:02:59.824Z,9.30
2017-05-08T08:05:27.574Z,9.40
2017-05-08T08:07:55.096Z,9.30
2017-05-08T08:10:24.018Z,9.00
2017-05-08T08:12:52.301Z,8.90
2017-05-08T08:15:20.647Z,9.00
2017-05-08T08:17:48.171Z,9.00
2017-05-08T08:20:16.489Z,9.00
2017-05-08T08:22:44.787Z,9.00
2017-05-08T08:25:13.055Z,9.10
2017-05-08T08:27:40.628Z,9.10
2017-05-08T08:30:08.136Z,9.00
2017-05-08T08:32:36.432Z,9.00
2017-05-08T08:35:04.696Z,8.90
2017-05-08T08:37:32.468Z,9.00
2017-05-08T08:40:01.047Z,9.10
2017-05-08T08:42:28.631Z,9.10
2017-05-08T08:44:57.627Z,8.90
2017-05-08T08:47:25.435Z,8.90
2017-05-08T08:49:53.277Z,8.80
2017-05-08T08:52:21.654Z,8.60
2017-05-08T08:54:50.000Z,8.60
2017-05-08T08:57:17.790Z,8.60
2017-05-08T08:59:46.319Z,8.60
2017-05-08T09:02:14.085Z,8.50
2017-05-08T09:04:42.390Z,8.40
2017-05-08T09:07:11.404Z,8.50
2017-05-08T09:09:39.704Z,8.50
2017-05-08T09:12:08.016Z,8.30
2017-05-08T09:14:35.584Z,8.30
2017-05-08T09:17:03.099Z,8.20
2017-05-08T09:19:31.482Z,8.30
2017-05-08T09:21:59.020Z,8.20
2017-05-08T09:24:27.353Z,8.00
2017-05-08T09:26:54.915Z,8.00
2017-05-08T09:29:23.180Z,8.00
2017-05-08T09:31:51.024Z,8.00
2017-05-08T09:34:19.284Z,8.30
2017-05-08T09:36:46.840Z,8.30
2017-05-08T09:39:15.352Z,8.40
2017-05-08T09:41:42.900Z,8.40
2017-05-08T09:44:10.478Z,8.40
2017-05-08T09:46:37.988Z,8.50
2017-05-08T09:49:06.353Z,8.20
2017-05-08T09:51:33.908Z,8.20
2017-05-08T09:54:01.867Z,8.10
2017-05-08T09:56:30.164Z,7.80
2017-05-08T09:58:58.525Z,7.80
2017-05-08T10:01:27.240Z,7.80
2017-05-08T10:03:54.868Z,8.00
2017-05-08T10:06:22.584Z,8.00
2017-05-08T10:08:50.356Z,8.00
2017-05-08T10:11:19.372Z,8.20
2017-05-08T10:13:47.765Z,8.20
2017-05-08T10:16:15.275Z,8.20
2017-05-08T10:18:42.805Z,8.00
2017-05-08T10:21:10.571Z,8.10
2017-05-08T10:23:38.087Z,8.20
2017-05-08T10:26:06.607Z,8.30
2017-05-08T10:28:34.160Z,8.30
2017-05-08T10:31:01.653Z,8.20
2017-05-08T10:33:29.224Z,8.40
2017-05-08T10:35:57.043Z,8.50
2017-05-08T10:38:24.564Z,8.70
2017-05-08T10:40:52.099Z,8.60
2017-05-08T10:43:19.734Z,8.60
2017-05-08T10:45:47.231Z,8.40
2017-05-08T10:48:15.607Z,8.40
2017-05-08T10:50:43.891Z,8.30
2017-05-08T10:53:11.411Z,8.30
2017-05-08T10:55:38.949Z,8.30
2017-05-08T10:58:06.467Z,8.50
2017-05-08T11:00:34.727Z,8.60
2017-05-08T11:03:03.033Z,8.50
2017-05-08T11:05:31.336Z,8.50
2017-05-08T11:07:59.655Z,8.50
2017-05-08T11:10:28.137Z,8.80
2017-05-08T11:12:56.616Z,8.90
2017-05-08T11:15:24.233Z,8.80
2017-05-08T11:17:52.726Z,8.60
2017-05-08T11:20:20.280Z,8.60
2017-05-08T11:22:48.543Z,8.20
2017-05-08T11:25:16.832Z,8.10
2017-05-08T11:27:44.376Z,8.10
2017-05-08T11:30:12.711Z,8.20
2017-05-08T11:32:40.221Z,8.20
2017-05-08T11:35:07.756Z,8.20
2017-05-08T11:37:35.397Z,8.10
2017-05-08T11:40:02.916Z,8.00
2017-05-08T11:42:30.470Z,7.90
2017-05-08T11:44:58.802Z,7.90
2017-05-08T11:47:26.304Z,7.90
2017-05-08T11:49:54.835Z,8.00
2017-05-08T11:52:22.352Z,8.00
2017-05-08T11:54:50.636Z,8.30
2017-05-08T11:57:18.915Z,8.30
2017-05-08T11:59:48.228Z,8.30
2017-05-08T12:02:15.800Z,8.30
2017-05-08T12:04:44.375Z,8.20
2017-05-08T12:07:11.934Z,8.20
2017-05-08T12:09:39.463Z,8.10
2017-05-08T12:12:07.048Z,8.10
2017-05-08T12:14:34.545Z,8.20
2017-05-08T12:17:02.112Z,8.30
2017-05-08T12:19:30.385Z,8.30
2017-05-08T12:21:58.682Z,8.30
2017-05-08T12:24:26.974Z,8.50
2017-05-08T12:26:54.518Z,8.50
2017-05-08T12:29:22.775Z,8.60
2017-05-08T12:31:52.338Z,8.90
2017-05-08T12:36:56.664Z,9.10
2017-05-08T12:39:26.874Z,9.30
2017-05-08T12:41:55.257Z,9.20
2017-05-08T12:44:22.820Z,9.20
2017-05-08T12:46:51.910Z,8.90
2017-05-08T12:49:20.836Z,8.90
2017-05-08T12:51:49.283Z,8.60
2017-05-08T12:54:24.809Z,8.80
2017-05-08T12:56:54.863Z,9.10
2017-05-08T12:59:23.809Z,9.10
2017-05-08T13:01:51.660Z,9.30
2017-05-08T13:04:19.897Z,9.50
2017-05-08T13:06:47.519Z,9.40
2017-05-08T13:09:15.082Z,9.20
2017-05-08T13:11:43.343Z,9.10
2017-05-08T13:14:11.139Z,9.10
2017-05-08T13:16:38.976Z,8.80
2017-05-08T13:19:06.500Z,8.70
2017-05-08T13:21:34.073Z,8.60
2017-05-08T13:24:02.384Z,8.70
2017-05-08T13:26:30.127Z,8.70
2017-05-08T13:28:57.639Z,8.50
2017-05-08T13:31:25.916Z,8.40
2017-05-08T13:33:54.344Z,8.40
2017-05-08T13:36:22.100Z,8.40
2017-05-08T13:38:49.615Z,8.40
2017-05-08T13:41:18.140Z,8.30
2017-05-08T13:43:46.427Z,8.30
2017-05-08T13:46:13.959Z,8.30
2017-05-08T13:48:41.600Z,8.10
2017-05-08T13:51:09.864Z,8.10
2017-05-08T13:53:38.251Z,8.20
2017-05-08T13:56:05.772Z,8.10
2017-05-08T13:58:34.077Z,8.30
2017-05-08T14:01:01.604Z,8.30
2017-05-08T14:03:29.123Z,8.30
2017-05-08T14:05:56.715Z,8.20
2017-05-08T14:08:24.251Z,8.20
2017-05-08T14:10:51.821Z,8.10
2017-05-08T14:13:19.665Z,8.10
2017-05-08T14:15:47.933Z,8.00
2017-05-08T14:18:15.700Z,8.00
2017-05-08T14:20:43.232Z,7.70
2017-05-08T14:23:11.584Z,7.60
2017-05-08T14:25:39.916Z,7.60
2017-05-08T14:28:07.510Z,7.60
2017-05-08T14:30:35.834Z,7.60
2017-05-08T14:33:03.326Z,7.60
2017-05-08T14:35:31.184Z,7.60
2017-05-08T14:37:59.750Z,7.60
2017-05-08T14:42:50.344Z,7.50
2017-05-08T14:45:17.913Z,7.50
2017-05-08T14:47:46.172Z,7.60
2017-05-08T14:50:13.687Z,7.60
2017-05-08T14:52:41.944Z,7.50
2017-05-08T14:55:11.053Z,7.40
2017-05-08T14:57:39.348Z,7.40
2017-05-08T15:00:07.622Z,7.50
2017-05-08T15:02:36.007Z,7.30
2017-05-08T15:05:04.620Z,7.40
2017-05-08T15:07:32.233Z,7.30
2017-05-08T15:10:00.699Z,7.40
2017-05-08T15:12:28.523Z,7.40
2017-05-08T15:14:56.022Z,7.40
2017-05-08T15:17:24.347Z,7.30
2017-05-08T15:19:51.881Z,7.30
2017-05-08T15:22:19.442Z,7.30
2017-05-08T15:24:48.060Z,7.30
2017-05-08T15:27:15.555Z,7.30
2017-05-08T15:29:44.089Z,7.30
2017-05-08T15:32:15.056Z,7.30
2017-05-08T15:34:43.376Z,7.40
2017-05-08T15:37:10.876Z,7.40
2017-05-08T15:39:40.214Z,7.30
2017-05-08T15:42:08.476Z,7.20
2017-05-08T15:44:36.819Z,7.20
2017-05-08T15:47:04.396Z,7.20
2017-05-08T15:49:31.931Z,7.20
2017-05-08T15:52:00.260Z,7.30
2017-05-08T15:54:28.617Z,7.30
2017-05-08T15:56:56.937Z,7.20
2017-05-08T15:59:25.204Z,7.10
2017-05-08T16:01:52.733Z,7.10
2017-05-08T16:04:21.884Z,7.00
2017-05-08T16:06:49.399Z,7.00
2017-05-08T16:09:17.732Z,7.00
2017-05-08T16:11:46.879Z,7.00
2017-05-08T16:14:14.388Z,7.00
2017-05-08T16:16:43.445Z,7.10
2017-05-08T16:19:10.967Z,7.10
2017-05-08T16:21:39.591Z,7.10
2017-05-08T16:24:07.855Z,7.10
2017-05-08T16:26:37.418Z,7.10
2017-05-08T16:29:05.088Z,7.10
2017-05-08T16:31:40.266Z,7.00
2017-05-08T16:34:08.965Z,7.10
2017-05-08T16:36:36.803Z,7.00
2017-05-08T16:39:04.890Z,7.10
2017-05-08T16:41:42.374Z,7.10
2017-05-08T16:44:11.661Z,7.00
2017-05-08T16:46:42.091Z,7.00
2017-05-08T16:49:09.814Z,7.00
2017-05-08T16:51:41.730Z,6.90
2017-05-08T16:54:10.667Z,7.00
2017-05-08T16:56:39.097Z,6.90
2017-05-08T16:59:10.356Z,7.00
2017-05-08T17:01:40.482Z,7.00
2017-05-08T17:04:15.225Z,7.00
2017-05-08T17:06:42.972Z,6.90
2017-05-08T17:09:12.474Z,7.00
2017-05-08T17:11:41.562Z,7.00
2017-05-08T17:14:16.992Z,7.10
2017-05-08T17:16:47.093Z,7.20
2017-05-08T17:19:15.432Z,7.10
2017-05-08T17:21:51.535Z,7.10
2017-05-08T17:24:20.089Z,7.10
2017-05-08T17:26:48.803Z,7.20
2017-05-08T17:29:22.981Z,7.20
2017-05-08T17:31:51.283Z,7.10
2017-05-08T17:34:30.915Z,7.10
2017-05-08T17:37:00.323Z,7.10
2017-05-08T17:39:29.200Z,7.00
2017-05-08T17:41:56.840Z,7.00
2017-05-08T17:44:25.363Z,7.00
2017-05-08T17:46:53.819Z,7.00
2017-05-08T17:49:21.380Z,7.00
2017-05-08T17:51:49.615Z,7.00
2017-05-08T17:54:18.388Z,7.00
2017-05-08T17:56:48.373Z,7.10
2017-05-08T17:59:19.496Z,7.00
2017-05-08T18:01:47.215Z,6.90
2017-05-08T18:04:15.784Z,7.00
2017-05-08T18:06:44.836Z,6.90
2017-05-08T18:09:12.705Z,6.90
2017-05-08T18:11:40.227Z,7.00
2017-05-08T18:14:08.529Z,6.90
2017-05-08T18:16:36.844Z,6.90
2017-05-08T18:19:04.387Z,6.90
2017-05-08T18:21:32.242Z,6.90
2017-05-08T18:24:00.517Z,6.80
2017-05-08T18:26:28.073Z,6.80
2017-05-08T18:28:56.628Z,6.80
2017-05-08T18:31:25.011Z,6.80
2017-05-08T18:33:53.060Z,6.80
2017-05-08T18:36:21.348Z,6.90
2017-05-08T18:38:48.835Z,6.80
2017-05-08T18:41:16.618Z,6.80
2017-05-08T18:43:44.173Z,7.00
2017-05-08T18:46:13.259Z,6.90
2017-05-08T18:48:40.795Z,6.90
2017-05-08T18:51:09.175Z,6.90
2017-05-08T18:53:37.528Z,6.90
2017-05-08T18:56:05.836Z,6.90
2017-05-08T18:58:33.380Z,6.80
2017-05-08T19:01:00.917Z,6.80
2017-05-08T19:03:29.252Z,6.70
2017-05-08T19:05:57.187Z,6.60
2017-05-08T19:08:24.952Z,6.60
2017-05-08T19:10:53.317Z,6.40
2017-05-08T19:13:21.579Z,6.40
2017-05-08T19:15:49.170Z,6.30
2017-05-08T19:18:17.451Z,6.10
2017-05-08T19:20:46.479Z,6.00
2017-05-08T19:23:14.740Z,5.90
2017-05-08T19:25:43.003Z,5.80
2017-05-08T19:30:49.990Z,5.70
2017-05-08T19:33:18.366Z,5.60
2017-05-08T19:35:45.895Z,5.50
2017-05-08T19:38:13.403Z,5.50
2017-05-08T19:40:41.659Z,5.40
2017-05-08T19:43:09.181Z,5.40
2017-05-08T19:45:37.438Z,5.40
2017-05-08T19:48:05.216Z,5.40
2017-05-08T19:50:32.767Z,5.40
2017-05-08T19:53:00.281Z,5.40
2017-05-08T19:55:31.606Z,5.30
2017-05-08T19:58:00.164Z,5.30
2017-05-08T20:00:27.824Z,5.30
2017-05-08T20:02:55.431Z,5.30
2017-05-08T20:05:23.730Z,5.10
2017-05-08T20:07:51.517Z,5.10
2017-05-08T20:10:19.055Z,5.10
2017-05-08T20:12:47.364Z,5.10
2017-05-08T20:15:15.214Z,5.00
2017-05-08T20:17:42.775Z,5.10
2017-05-08T20:20:11.354Z,4.90
2017-05-08T20:22:38.924Z,4.90
2017-05-08T20:25:06.419Z,4.90
2017-05-08T20:27:35.156Z,4.80
2017-05-08T20:30:03.491Z,4.80
2017-05-08T20:32:32.001Z,4.80
2017-05-08T20:34:59.540Z,4.80
2017-05-08T20:37:27.850Z,4.80
2017-05-08T20:39:55.422Z,4.80
2017-05-08T20:42:22.954Z,4.80
2017-05-08T20:44:50.522Z,4.80
2017-05-08T20:47:18.159Z,4.70
2017-05-08T20:49:45.725Z,4.70
2017-05-08T20:52:13.979Z,4.60
2017-05-08T20:54:41.525Z,4.60
2017-05-08T20:57:09.023Z,4.80
2017-05-08T20:59:36.885Z,4.70
2017-05-08T21:02:07.220Z,4.50
2017-05-08T21:04:38.257Z,4.50
2017-05-08T21:07:07.120Z,4.50
2017-05-08T21:09:37.547Z,4.50
2017-05-08T21:12:07.658Z,4.50
2017-05-08T21:14:38.474Z,4.60
2017-05-08T21:17:06.023Z,4.50
2017-05-08T21:19:33.631Z,4.40
2017-05-08T21:22:01.159Z,4.40
2017-05-08T21:24:28.787Z,4.30
2017-05-08T21:26:57.044Z,4.30
2017-05-08T21:29:24.877Z,4.30
2017-05-08T21:31:52.770Z,4.30
2017-05-08T21:34:21.803Z,4.40
2017-05-08T21:36:49.317Z,4.30
2017-05-08T21:39:16.850Z,4.30
2017-05-08T21:41:44.376Z,4.30
2017-05-08T21:44:12.951Z,4.20
2017-05-08T21:46:41.352Z,4.20
2017-05-08T21:49:08.851Z,4.20
2017-05-08T21:51:37.924Z,4.10
2017-05-08T21:54:05.780Z,4.20
2017-05-08T21:56:33.416Z,4.20
2017-05-08T21:59:01.205Z,4.20
2017-05-08T22:01:28.799Z,4.20
2017-05-08T22:03:56.293Z,4.30
2017-05-08T22:06:23.818Z,4.20
2017-05-08T22:08:52.368Z,4.20
2017-05-08T22:11:20.116Z,4.20
2017-05-08T22:13:47.618Z,4.20
2017-05-08T22:16:15.919Z,4.20
2017-05-08T22:18:43.412Z,4.20
2017-05-08T22:21:10.936Z,4.30
2017-05-08T22:23:39.266Z,4.30
2017-05-08T22:26:07.864Z,4.40
2017-05-08T22:28:35.707Z,4.30
2017-05-08T22:31:03.192Z,4.30
2017-05-08T22:33:31.718Z,4.20
2017-05-08T22:35:59.216Z,4.20
2017-05-08T22:38:27.531Z,4.20
2017-05-08T22:40:55.097Z,4.10
2017-05-08T22:43:23.423Z,4.20
2017-05-08T22:45:51.247Z,4.20
2017-05-08T22:48:18.865Z,4.30
2017-05-08T22:50:47.156Z,4.50
2017-05-08T22:53:14.681Z,4.50
2017-05-08T22:55:42.225Z,4.40
2017-05-08T22:58:09.798Z,4.50
2017-05-08T23:00:37.298Z,4.50
2017-05-08T23:03:04.809Z,4.40
2017-05-08T23:05:32.343Z,4.40
2017-05-08T23:08:00.905Z,4.40
2017-05-08T23:10:29.196Z,4.40
2017-05-08T23:12:56.709Z,4.40
2017-05-08T23:15:25.021Z,4.30
2017-05-08T23:17:52.601Z,4.30
2017-05-08T23:20:20.914Z,4.40
2017-05-08T23:22:48.421Z,4.40
2017-05-08T23:25:15.916Z,4.40
2017-05-08T23:27:44.252Z,4.30
2017-05-08T23:30:11.746Z,4.30
2017-05-08T23:32:40.376Z,4.20
2017-05-08T23:35:07.879Z,4.20
2017-05-08T23:37:36.199Z,4.20
2017-05-08T23:40:03.701Z,4.20
2017-05-08T23:42:31.527Z,4.20
2017-05-08T23:44:59.804Z,4.20
2017-05-08T23:47:27.384Z,4.20
2017-05-08T23:49:54.916Z,4.20
2017-05-08T23:52:22.480Z,4.20
2017-05-08T23:54:50.783Z,4.10
2017-05-08T23:57:18.423Z,4.10
2017-05-08T23:59:46.692Z,4.10
